Flight Track Log - Related Links

Times and Time Zones

All times are in EDT time to prevent confusion due to time zone crossing. See the BJS542 flight status page for this flight to view local times or setup timezone preferences in your user account.

Time Position Orientation Groundspeed Altitude Reporting Facility
EDT Latitude Longitude Course Direction KTS MPH feet Rate Location/Type
Fri 03:11:08 PM 32.8500 -116.9500 131° Southeast 216 249 4,900  Level Southern California TRACON
Fri 03:12:08 PM 32.8333 -116.8833 107° East 256 295 7,700 2,656 Climbing Southern California TRACON
Fri 03:13:10 PM 32.7647 -116.8625 166° South 285 328 10,300 2,758 Climbing Los Angeles Center
Fri 03:14:12 PM 32.6833 -116.8836 192° South 296 341 13,400 3,451 Climbing Los Angeles Center
Fri 03:15:03 PM 32.6000 -116.8833 180° South 339 390 16,800 3,231 Climbing Southern California TRACON
Fri 03:16:00 PM 32.2551 -116.5955 131° Southeast  Level FlightAware Approximate
Fri 03:16:09 PM 32.4833 -116.8667 173° South 366 421 19,700  Level Southern California TRACON
Fri 03:17:18 PM 32.4019 -116.7708 135° Southeast 384 442 22,000 1,969 Climbing Los Angeles Center
Fri 03:18:20 PM 32.3236 -116.6744 134° Southeast 404 465 24,000 1,984 Climbing Los Angeles Center
Fri 03:19:22 PM 32.2431 -116.5736 133° Southeast 421 484 26,100 2,129 Climbing Los Angeles Center
Fri 03:20:24 PM 32.1608 -116.4719 134° Southeast 429 494 28,400 2,400 Climbing Los Angeles Center
Fri 03:21:27 PM 32.0633 -116.3472 133° Southeast 432 497 31,100 2,400 Climbing Los Angeles Center
Fri 03:22:29 PM 31.9814 -116.2450 133° Southeast 432 497 33,400 2,129 Climbing Los Angeles Center
Fri 03:23:31 PM 31.9019 -116.1442 133° Southeast 423 487 35,500 1,790 Climbing Los Angeles Center
Fri 03:24:33 PM 31.8206 -116.0439 134° Southeast 425 489 37,100 1,694 Climbing Los Angeles Center
Fri 03:25:35 PM 31.7225 -115.9208 133° Southeast 429 494 39,000 1,839 Climbing Los Angeles Center
Fri 03:27:00 PM 31.6069 -115.7847 134° Southeast  Level FlightAware Approximate
Fri 03:34:00 PM 31.0456 -115.1109 132° Southeast  Level FlightAware Approximate
Fri 03:35:00 PM 30.9685 -115.0106 132° Southeast  Level FlightAware Approximate
Fri 03:36:00 PM 30.8913 -114.9104 132° Southeast  Level FlightAware Approximate
Fri 03:37:00 PM 30.8128 -114.8118 133° Southeast  Level FlightAware Approximate
Fri 03:38:00 PM 30.7336 -114.7140 135° Southeast  Level FlightAware Approximate
Fri 03:39:00 PM 30.6524 -114.6184 135° Southeast  Level FlightAware Approximate
Fri 03:40:00 PM 30.5712 -114.5230 135° Southeast  Level FlightAware Approximate
Fri 03:41:00 PM 30.4899 -114.4278 135° Southeast  Level FlightAware Approximate
Fri 03:42:00 PM 30.4085 -114.3327 135° Southeast  Level FlightAware Approximate
Fri 03:43:00 PM 30.3271 -114.2378 135° Southeast  Level FlightAware Approximate
Fri 03:44:00 PM 30.2456 -114.1431 135° Southeast  Level FlightAware Approximate
Fri 03:45:00 PM 30.1640 -114.0485 135° Southeast  Level FlightAware Approximate
Fri 03:46:00 PM 30.0824 -113.9540 135° Southeast  Level FlightAware Approximate
Fri 03:47:00 PM 30.0015 -113.8588 134° Southeast  Level FlightAware Approximate
Fri 03:48:00 PM 29.9210 -113.7632 134° Southeast  Level FlightAware Approximate
Fri 03:49:00 PM 29.8405 -113.6677 134° Southeast  Level FlightAware Approximate
Fri 03:50:00 PM 29.7597 -113.5727 135° Southeast  Level FlightAware Approximate
Fri 03:51:00 PM 29.6781 -113.4785 135° Southeast  Level FlightAware Approximate
Fri 03:52:00 PM 29.5965 -113.3845 135° Southeast  Level FlightAware Approximate
Fri 03:53:00 PM 29.5148 -113.2907 135° Southeast  Level FlightAware Approximate
Fri 03:54:00 PM 29.4330 -113.1970 135° Southeast  Level FlightAware Approximate
Fri 03:55:00 PM 29.3512 -113.1035 135° Southeast  Level FlightAware Approximate
Fri 03:56:00 PM 29.2693 -113.0101 135° Southeast  Level FlightAware Approximate
Fri 03:57:00 PM 29.1873 -112.9169 135° Southeast  Level FlightAware Approximate
Fri 03:58:00 PM 29.1053 -112.8238 135° Southeast  Level FlightAware Approximate
Fri 03:59:00 PM 29.0232 -112.7309 135° Southeast  Level FlightAware Approximate
Fri 04:00:00 PM 28.9410 -112.6381 135° Southeast  Level FlightAware Approximate
Fri 04:01:00 PM 28.8588 -112.5454 135° Southeast  Level FlightAware Approximate
Fri 04:02:00 PM 28.7766 -112.4529 135° Southeast  Level FlightAware Approximate
Fri 04:03:00 PM 28.6942 -112.3606 135° Southeast  Level FlightAware Approximate
Fri 04:04:00 PM 28.6118 -112.2684 136° Southeast  Level FlightAware Approximate
Fri 04:05:00 PM 28.5293 -112.1763 136° Southeast  Level FlightAware Approximate
Fri 04:06:00 PM 28.4468 -112.0844 136° Southeast  Level FlightAware Approximate
Fri 04:07:00 PM 28.3642 -111.9926 136° Southeast  Level FlightAware Approximate
Fri 04:08:00 PM 28.2816 -111.9010 136° Southeast  Level FlightAware Approximate
Fri 04:09:00 PM 28.1988 -111.8095 136° Southeast  Level FlightAware Approximate
Fri 04:10:00 PM 28.1161 -111.7182 136° Southeast  Level FlightAware Approximate
Fri 04:11:00 PM 28.0332 -111.6270 136° Southeast  Level FlightAware Approximate
Fri 04:12:00 PM 27.9503 -111.5359 136° Southeast  Level FlightAware Approximate
Fri 04:13:00 PM 27.8674 -111.4450 136° Southeast  Level FlightAware Approximate
Fri 04:14:00 PM 27.7844 -111.3542 136° Southeast  Level FlightAware Approximate
Fri 04:15:00 PM 27.7017 -111.2631 136° Southeast  Level FlightAware Approximate
Fri 04:16:00 PM 27.6192 -111.1718 136° Southeast  Level FlightAware Approximate
Fri 04:17:00 PM 27.5367 -111.0806 136° Southeast  Level FlightAware Approximate
Fri 04:18:00 PM 27.4541 -110.9896 136° Southeast  Level FlightAware Approximate
Fri 04:19:00 PM 27.3715 -110.8987 136° Southeast  Level FlightAware Approximate
Fri 04:20:00 PM 27.2888 -110.8080 136° Southeast  Level FlightAware Approximate
Fri 04:21:00 PM 27.2060 -110.7174 136° Southeast  Level FlightAware Approximate
Fri 04:22:00 PM 27.1232 -110.6270 136° Southeast  Level FlightAware Approximate
Fri 04:23:00 PM 27.0403 -110.5366 136° Southeast  Level FlightAware Approximate
Fri 04:24:00 PM 26.9573 -110.4464 136° Southeast  Level FlightAware Approximate
Fri 04:25:00 PM 26.8743 -110.3564 136° Southeast  Level FlightAware Approximate
Fri 04:26:00 PM 26.7913 -110.2665 136° Southeast  Level FlightAware Approximate
Fri 04:27:00 PM 26.7081 -110.1767 136° Southeast  Level FlightAware Approximate
Fri 04:28:00 PM 26.6250 -110.0870 136° Southeast  Level FlightAware Approximate
Fri 04:29:00 PM 26.5417 -109.9975 136° Southeast  Level FlightAware Approximate
Fri 04:30:00 PM 26.4584 -109.9081 136° Southeast  Level FlightAware Approximate
Fri 04:31:00 PM 26.3751 -109.8188 136° Southeast  Level FlightAware Approximate
Fri 04:32:00 PM 26.2917 -109.7297 136° Southeast  Level FlightAware Approximate
Fri 04:33:00 PM 26.2082 -109.6407 136° Southeast  Level FlightAware Approximate
Fri 04:34:00 PM 26.1247 -109.5518 136° Southeast  Level FlightAware Approximate
Fri 04:35:00 PM 26.0412 -109.4630 136° Southeast  Level FlightAware Approximate
Fri 04:36:00 PM 25.9576 -109.3744 136° Southeast  Level FlightAware Approximate
Fri 04:37:00 PM 25.8739 -109.2859 136° Southeast  Level FlightAware Approximate
Fri 04:38:00 PM 25.7901 -109.1975 136° Southeast  Level FlightAware Approximate
Fri 04:39:00 PM 25.7064 -109.1093 136° Southeast  Level FlightAware Approximate
Fri 04:40:00 PM 25.6190 -109.0260 145° Southeast  Level FlightAware Approximate
Fri 04:41:00 PM 25.5243 -108.9527 145° Southeast  Level FlightAware Approximate
Fri 04:42:00 PM 25.4296 -108.8794 145° Southeast  Level FlightAware Approximate
Fri 04:43:00 PM 25.3349 -108.8064 145° Southeast  Level FlightAware Approximate
Fri 04:44:00 PM 25.2406 -108.7326 144° Southeast  Level FlightAware Approximate
Fri 04:45:00 PM 25.1469 -108.6580 144° Southeast  Level FlightAware Approximate
Fri 04:46:00 PM 25.0532 -108.5834 144° Southeast  Level FlightAware Approximate
Fri 04:47:00 PM 24.9594 -108.5090 144° Southeast  Level FlightAware Approximate
Fri 04:48:00 PM 24.8656 -108.4347 144° Southeast  Level FlightAware Approximate
Fri 04:49:00 PM 24.7718 -108.3606 144° Southeast  Level FlightAware Approximate
Fri 04:50:00 PM 24.6779 -108.2865 144° Southeast  Level FlightAware Approximate
Fri 04:51:00 PM 24.5840 -108.2125 144° Southeast  Level FlightAware Approximate
Fri 04:52:00 PM 24.4901 -108.1387 144° Southeast  Level FlightAware Approximate
Fri 04:53:00 PM 24.3961 -108.0650 144° Southeast  Level FlightAware Approximate
Fri 04:54:00 PM 24.3021 -107.9914 144° Southeast  Level FlightAware Approximate
Fri 04:55:00 PM 24.2080 -107.9178 145° Southeast  Level FlightAware Approximate
Fri 04:56:00 PM 24.1140 -107.8445 145° Southeast  Level FlightAware Approximate
Fri 04:57:00 PM 24.0198 -107.7711 145° Southeast  Level FlightAware Approximate
Fri 04:58:00 PM 23.9257 -107.6980 145° Southeast  Level FlightAware Approximate
Fri 04:59:00 PM 23.8315 -107.6249 145° Southeast  Level FlightAware Approximate
Fri 05:00:00 PM 23.7373 -107.5519 145° Southeast  Level FlightAware Approximate
Fri 05:01:00 PM 23.6430 -107.4790 145° Southeast  Level FlightAware Approximate
Fri 05:02:00 PM 23.5487 -107.4063 145° Southeast  Level FlightAware Approximate
Fri 05:03:00 PM 23.4544 -107.3336 145° Southeast  Level FlightAware Approximate
Fri 05:04:00 PM 23.3600 -107.2610 145° Southeast  Level FlightAware Approximate
Fri 05:05:00 PM 23.2656 -107.1886 145° Southeast  Level FlightAware Approximate
Fri 05:06:00 PM 23.1712 -107.1162 145° Southeast  Level FlightAware Approximate
Fri 05:07:00 PM 23.0760 -107.0451 146° Southeast  Level FlightAware Approximate
Fri 05:08:00 PM 22.9805 -106.9745 146° Southeast  Level FlightAware Approximate
Fri 05:09:00 PM 22.8851 -106.9040 146° Southeast  Level FlightAware Approximate
Fri 05:10:00 PM 22.7895 -106.8335 146° Southeast  Level FlightAware Approximate
Fri 05:11:00 PM 22.6988 -106.7563 141° Southeast  Level FlightAware Approximate
Fri 05:12:00 PM 22.6088 -106.6778 147° Southeast  Level FlightAware Approximate
Fri 05:13:00 PM 22.5119 -106.6099 147° Southeast  Level FlightAware Approximate
Fri 05:14:00 PM 22.4159 -106.5404 145° Southeast  Level FlightAware Approximate
Fri 05:15:00 PM 22.3218 -106.4680 145° Southeast  Level FlightAware Approximate
Fri 05:16:00 PM 22.2271 -106.3969 155° Southeast  Level FlightAware Approximate
Fri 05:17:00 PM 22.1302 -106.3317 155° Southeast  Level FlightAware Approximate
Fri 05:18:00 PM 22.0339 -106.2638 143° Southeast  Level FlightAware Approximate
Fri 05:19:00 PM 21.9431 -106.1869 141° Southeast  Level FlightAware Approximate
Fri 05:20:00 PM 21.8492 -106.1148 147° Southeast  Level FlightAware Approximate
Fri 05:21:00 PM 21.7520 -106.0475 147° Southeast  Level FlightAware Approximate
Fri 05:22:00 PM 21.6553 -105.9796 146° Southeast  Level FlightAware Approximate
Fri 05:23:00 PM 21.5597 -105.9099 146° Southeast  Level FlightAware Approximate
Fri 05:24:00 PM 21.4640 -105.8403 146° Southeast  Level FlightAware Approximate
Fri 05:25:00 PM 21.3684 -105.7708 146° Southeast  Level FlightAware Approximate
Fri 05:26:00 PM 21.2755 -105.6973 141° Southeast  Level FlightAware Approximate
Fri 05:27:00 PM 21.1860 -105.6190 141° Southeast  Level FlightAware Approximate
Fri 05:28:00 PM 21.0870 -105.5553 149° Southeast  Level FlightAware Approximate
Fri 05:29:00 PM 20.9883 -105.4912 145° Southeast  Level FlightAware Approximate
Fri 05:30:00 PM 20.8937 -105.4203 145° Southeast  Level FlightAware Approximate
Fri 05:31:00 PM 20.8019 -105.3519 137° Southeast  Level FlightAware Approximate
Fri 05:32:00 PM 20.7040 -105.2874 137° Southeast  Level FlightAware Approximate
Fri 05:33:00 PM 20.6801 -105.2542 North  Level Estimated
Fri 05:34:00 PM 20.6801 -105.2542 North  Level Estimated
Fri 05:35:00 PM 20.6801 -105.2542 North  Level Estimated
Fri 05:36:00 PM 20.6801 -105.2542 North  Level Estimated
Fri 05:37:00 PM 20.6801 -105.2542 North  Level Estimated
Fri 05:38:00 PM 20.6801 -105.2542 North  Level Estimated
Fri 05:39:00 PM 20.6801 -105.2542 North  Level Estimated
Fri 05:40:00 PM 20.6801 -105.2542 North  Level Estimated
Fri 05:41:00 PM 20.6801 -105.2542 North  Level Estimated
Fri 05:42:00 PM 20.6801 -105.2542 North  Level Estimated
Fri 05:43:00 PM 20.6801 -105.2542 North  Level Estimated
Fri 05:44:00 PM 20.6801 -105.2542 North  Level Estimated
Fri 05:45:00 PM 20.6801 -105.2542 North  Level Estimated

Login

Don't have an account? Register now (free) for customized features, flight alerts, and more!